logo
Search for airport 
image banner adimage banner adimage banner ad
image banner ad

EHG003 - Castricum

Located in , Netherlands

ICAO - , IATA -

Data provided by Airmate  

General information

Coordinates: N52°32'12" E4°37'36"
Elevation is 10 feet MSL.
 
View others Airports in Noord-Holland

Operational data

Special qualification required
Current time UTC:
Current local time:
Weather at : EHAM - Amsterdam/Schiphol ( 27 km )
METAR: EHAM 161855Z 24015KT 210V270 9999 FEW014 SCT018 18/15 Q1011 NOSIG
TAF: TAF EHAM 161718Z 1618/1724 24015KT 9999 SCT022 PROB40 TEMPO 1618/1704 7000 -RADZ -SHRA SCT012 BKN018 FEW020TCU BECMG 1619/1622 27011KT BECMG 1713/1716 30008KT BECMG 1718/1721 VRB02KT
View NOTAMs / SUP AIP / TFR affecting this airport [VIEW]
Communications frequencies: [VIEW]

Runways:

Airport contact information

Address: Netherlands

Satellite view of EHG003